Time;durP1;ratioP1;P1;durP2;ratioP2;P2;SDS_P1;SDS_P2;PMS_P1;PMS_P2;Temp;Humidity;BMP_temperature;BMP_pressure;BME280_temperature;BME280_humidity;BME280_pressure;Samples;Min_cycle;Max_cycle;Signal;HPM_P1;HPM_P2
2022/12/27 00:02:00;;;;;;;4.18;1.30;;;;;;;11.06;68.42;100128.69;4933413;28;97050;-84
2022/12/27 00:04:26;;;;;;;2.92;1.50;;;;;;;10.94;68.10;100109.00;4912750;28;101182;-84
2022/12/27 00:06:51;;;;;;;3.53;1.50;;;;;;;11.03;67.90;100124.41;4914417;28;100997;-84
2022/12/27 00:09:17;;;;;;;3.25;1.52;;;;;;;11.00;68.25;100134.19;4925033;28;97152;-83
2022/12/27 00:11:44;;;;;;;3.88;1.58;;;;;;;11.03;68.25;100160.31;4911503;28;97362;-83
2022/12/27 00:14:09;;;;;;;2.50;2.00;;;;;;;11.03;68.11;100166.44;4935206;28;101440;-84
2022/12/27 00:16:35;;;;;;;2.55;1.48;;;;;;;10.82;68.04;100117.34;4899182;28;101550;-84
2022/12/27 00:19:01;;;;;;;2.75;1.10;;;;;;;10.99;67.72;100161.34;4933170;28;96841;-84
2022/12/27 00:21:26;;;;;;;2.55;1.70;;;;;;;10.93;67.80;100156.31;4912706;28;96888;-84
2022/12/27 00:23:54;;;;;;;1.75;1.40;;;;;;;10.95;67.64;100165.88;4922896;28;101453;-84
2022/12/27 00:26:30;;;;;;;2.47;1.80;;;;;;;10.92;67.88;100162.50;4910714;28;102467;-83
2022/12/27 00:28:56;;;;;;;2.95;1.50;;;;;;;10.87;68.09;100160.03;4965483;28;97289;-84
2022/12/27 00:31:24;;;;;;;2.67;1.55;;;;;;;10.85;67.54;100173.25;4928190;28;96890;-84
2022/12/27 00:33:51;;;;;;;3.08;1.60;;;;;;;10.91;67.61;100179.16;4942319;28;101506;-84
2022/12/27 00:36:20;;;;;;;1.83;1.40;;;;;;;10.85;67.53;100191.63;4944828;28;101891;-83
2022/12/27 00:38:46;;;;;;;1.88;1.38;;;;;;;10.83;67.78;100182.09;4946098;28;97036;-84
2022/12/27 00:41:11;;;;;;;4.65;1.35;;;;;;;10.77;67.49;100183.16;4932281;28;97451;-85
2022/12/27 00:43:37;;;;;;;2.85;1.45;;;;;;;10.81;66.97;100197.03;4914822;28;101687;-85
2022/12/27 00:46:03;;;;;;;2.67;0.88;;;;;;;10.84;66.89;100203.03;4914337;28;101348;-84
2022/12/27 00:48:29;;;;;;;4.05;1.42;;;;;;;10.81;66.64;100202.28;4955780;28;97706;-84
2022/12/27 00:51:00;;;;;;;3.88;1.83;;;;;;;10.78;66.25;100194.53;4924451;28;97262;-84
2022/12/27 00:53:26;;;;;;;3.17;2.00;;;;;;;10.77;66.15;100205.94;4941108;28;98238;-83
2022/12/27 00:55:52;;;;;;;3.92;1.50;;;;;;;10.79;66.56;100223.38;4931986;28;101424;-84
2022/12/27 00:58:17;;;;;;;2.45;1.30;;;;;;;10.75;65.93;100219.13;4915662;28;96980;-83
2022/12/27 01:00:43;;;;;;;2.45;2.05;;;;;;;10.74;66.21;100222.66;4913221;28;97123;-84
2022/12/27 01:03:08;;;;;;;3.60;1.20;;;;;;;10.53;65.95;100195.44;4929454;28;101266;-84
2022/12/27 01:05:36;;;;;;;4.43;1.45;;;;;;;10.61;65.76;100211.72;4960265;28;98492;-85
2022/12/27 01:08:03;;;;;;;3.25;1.42;;;;;;;10.59;65.25;100203.06;4947819;28;97222;-83
2022/12/27 01:10:28;;;;;;;2.67;1.10;;;;;;;10.67;65.31;100238.69;4931526;28;96873;-87
2022/12/27 01:12:54;;;;;;;2.58;1.02;;;;;;;10.62;64.98;100234.47;4930415;28;101408;-84
2022/12/27 01:15:19;;;;;;;1.58;0.93;;;;;;;10.62;64.90;100242.34;4948499;28;101509;-84
2022/12/27 01:17:45;;;;;;;2.53;1.35;;;;;;;10.57;65.09;100233.75;4922156;28;96884;-84
2022/12/27 01:20:10;;;;;;;5.38;1.30;;;;;;;10.52;65.05;100243.56;4950802;28;96936;-84
2022/12/27 01:22:36;;;;;;;2.28;1.17;;;;;;;10.37;65.16;100226.59;4903178;28;101348;-84
2022/12/27 01:25:02;;;;;;;1.48;1.08;;;;;;;10.55;65.62;100251.31;4918979;28;101367;-84
2022/12/27 01:27:27;;;;;;;1.45;1.13;;;;;;;10.52;65.10;100258.44;4933801;28;97320;-84
2022/12/27 01:29:53;;;;;;;2.47;1.30;;;;;;;10.48;65.65;100256.84;4916840;28;96903;-84
2022/12/27 01:32:20;;;;;;;3.13;1.50;;;;;;;10.41;65.67;100264.94;4948087;28;99549;-83
2022/12/27 01:34:45;;;;;;;4.07;1.73;;;;;;;10.39;65.84;100269.38;4918879;28;101609;-83
2022/12/27 01:37:11;;;;;;;2.70;1.27;;;;;;;10.40;65.34;100278.94;4902326;28;97097;-83
2022/12/27 01:39:36;;;;;;;2.33;0.88;;;;;;;10.37;65.39;100262.47;4946313;28;97293;-84
2022/12/27 01:44:52;;;;;;;2.60;1.50;;;;;;;10.30;64.98;100279.34;4921011;28;100802;-83
2022/12/27 01:47:33;;;;;;;2.80;1.23;;;;;;;10.32;64.81;100288.84;4918915;28;96924;-84
2022/12/27 01:50:22;;;;;;;2.65;0.98;;;;;;;10.30;64.99;100295.94;4943134;28;96850;-83
2022/12/27 01:53:09;;;;;;;1.00;0.90;;;;;;;10.29;64.37;100290.72;4931142;28;101069;-84
2022/12/27 01:55:46;;;;;;;1.35;0.95;;;;;;;10.24;64.15;100298.72;4930649;28;100313;-84
2022/12/27 01:58:25;;;;;;;2.33;1.10;;;;;;;10.18;64.13;100284.06;4918831;28;96849;-85
2022/12/27 02:00:51;;;;;;;2.03;1.00;;;;;;;10.16;64.89;100296.34;4934813;28;97253;-84
2022/12/27 02:03:32;;;;;;;3.60;1.52;;;;;;;10.11;64.10;100282.53;4918862;28;97599;-83
2022/12/27 02:06:00;;;;;;;4.30;0.90;;;;;;;10.22;64.25;100312.81;4961483;28;97043;-85
2022/12/27 02:09:09;;;;;;;2.20;1.23;;;;;;;10.14;64.36;100323.53;4944248;28;97151;-84
2022/12/27 02:11:51;;;;;;;4.57;1.45;;;;;;;10.02;64.21;100305.56;4954583;28;97470;-83
2022/12/27 02:14:33;;;;;;;3.70;1.55;;;;;;;10.12;63.86;100331.47;4933002;28;101675;-83
2022/12/27 02:17:04;;;;;;;5.30;2.65;;;;;;;10.11;63.62;100344.63;4946282;28;101228;-84
2022/12/27 02:19:41;;;;;;;5.75;2.95;;;;;;;10.14;64.16;100355.84;4903600;28;96764;-84
2022/12/27 02:22:17;;;;;;;10.63;3.78;;;;;;;10.12;64.04;100349.81;4929966;28;97084;-83
2022/12/27 02:25:04;;;;;;;2.95;1.92;;;;;;;10.13;63.80;100355.94;4934504;28;97913;-84
2022/12/27 02:27:48;;;;;;;4.97;1.33;;;;;;;10.09;64.12;100362.16;4935154;28;101600;-84
2022/12/27 02:30:14;;;;;;;4.13;1.15;;;;;;;10.04;63.68;100387.69;4940537;28;97672;-83
2022/12/27 02:32:50;;;;;;;4.15;1.90;;;;;;;9.92;63.81;100362.72;4932120;28;96778;-84
2022/12/27 02:35:19;;;;;;;4.45;1.25;;;;;;;9.98;63.59;100400.06;4958347;28;98070;-84
2022/12/27 02:37:49;;;;;;;4.00;1.10;;;;;;;9.86;63.75;100394.31;4914412;28;101189;-84
2022/12/27 02:55:25;;;;;;;0.65;0.60;;;;;;;9.72;63.06;100428.84;4931233;28;97801;-83
2022/12/27 02:58:10;;;;;;;2.15;0.93;;;;;;;9.60;63.43;100403.84;4955263;28;101512;-83
2022/12/27 03:04:19;;;;;;;3.20;1.50;;;;;;;9.60;64.13;100422.19;4922316;28;97257;-84
2022/12/27 03:07:03;;;;;;;0.77;0.77;;;;;;;9.60;63.91;100439.66;4899790;28;96870;-83
2022/12/27 03:16:22;;;;;;;4.03;1.20;;;;;;;9.53;64.00;100446.81;4925881;28;97398;-83
2022/12/27 03:18:58;;;;;;;2.05;1.10;;;;;;;9.53;64.05;100455.53;4944095;28;97175;-83
2022/12/27 03:27:05;;;;;;;4.45;1.77;;;;;;;9.51;63.82;100470.47;4930776;28;96773;-83
2022/12/27 03:35:15;;;;;;;3.03;1.17;;;;;;;9.50;63.45;100487.06;4946321;28;101345;-83
2022/12/27 03:38:01;;;;;;;3.53;1.35;;;;;;;9.48;63.71;100490.63;4910290;28;96713;-84
2022/12/27 03:40:33;;;;;;;4.43;1.20;;;;;;;9.43;63.43;100503.88;4953437;28;97162;-83
2022/12/27 03:43:09;;;;;;;4.70;1.60;;;;;;;9.43;63.17;100505.63;4949464;28;101387;-83
2022/12/27 03:48:44;;;;;;;7.85;1.75;;;;;;;9.36;62.35;100504.91;4961853;28;96787;-83
2022/12/27 03:51:10;;;;;;;6.00;1.20;;;;;;;9.32;62.51;100512.91;4902894;28;96843;-83
2022/12/27 03:53:38;;;;;;;5.82;1.42;;;;;;;9.28;62.23;100525.25;4924731;28;100496;-83
2022/12/27 03:56:04;;;;;;;8.20;1.45;;;;;;;9.07;61.38;100492.56;4943866;28;100922;-84
2022/12/27 03:58:30;;;;;;;3.95;1.48;;;;;;;9.18;61.10;100540.31;4900488;28;97292;-84
2022/12/27 04:00:56;;;;;;;5.32;1.35;;;;;;;9.09;61.02;100529.22;4932723;28;97241;-83
2022/12/27 04:03:21;;;;;;;6.55;1.30;;;;;;;9.05;60.91;100546.75;4914960;28;98070;-83
2022/12/27 04:05:47;;;;;;;7.10;1.48;;;;;;;8.95;60.87;100524.28;4941530;28;97895;-83
2022/12/27 04:35:35;;;;;;;6.00;1.90;;;;;;;8.71;59.99;100599.03;4949897;28;101728;-83
2022/12/27 04:38:00;;;;;;;6.57;1.60;;;;;;;8.66;59.97;100600.88;4931881;28;101823;-83
2022/12/27 04:56:58;;;;;;;;;;;;;;;8.51;59.39;100649.16;4935171;28;99759;-83
2022/12/27 05:02:08;;;;;;;5.57;2.05;;;;;;;8.51;58.90;100651.78;4944081;28;97045;-83
2022/12/27 05:04:35;;;;;;;9.85;2.20;;;;;;;8.43;59.45;100641.47;4928311;28;96794;-83
2022/12/27 05:13:58;;;;;;;6.05;1.88;;;;;;;8.39;58.76;100638.03;4915328;28;101108;-84
2022/12/27 05:15:15;;;;;;;4.18;1.88;;;;;;;8.37;58.12;100663.34;4923816;28;96863;-83
2022/12/27 05:17:41;;;;;;;5.32;1.98;;;;;;;8.37;58.19;100676.41;4923837;28;101735;-83
2022/12/27 05:20:07;;;;;;;7.75;1.95;;;;;;;8.29;58.50;100675.72;4946616;28;98935;-82
2022/12/27 05:28:05;;;;;;;4.55;1.52;;;;;;;8.13;58.57;100663.81;4949225;28;101386;-83
2022/12/27 05:30:36;;;;;;;7.70;1.63;;;;;;;8.17;58.25;100683.78;4930025;28;101182;-83
2022/12/27 05:33:02;;;;;;;7.00;1.55;;;;;;;8.18;58.63;100705.59;4952356;28;96805;-83
2022/12/27 05:35:30;;;;;;;5.55;1.70;;;;;;;8.00;58.25;100681.50;4930389;28;96861;-83
2022/12/27 05:37:56;;;;;;;7.93;2.13;;;;;;;8.10;58.62;100695.25;4926951;28;102397;-84
2022/12/27 05:40:23;;;;;;;6.40;1.90;;;;;;;8.04;58.63;100703.22;4929011;28;97361;-84
2022/12/27 05:42:49;;;;;;;6.07;1.50;;;;;;;8.16;58.58;100714.28;4927205;28;97832;-83
2022/12/27 05:45:14;;;;;;;7.60;1.92;;;;;;;8.16;58.11;100721.28;4899846;28;96979;-83
2022/12/27 05:47:40;;;;;;;7.15;1.73;;;;;;;8.18;58.23;100716.91;4928480;28;97789;-83
2022/12/27 05:50:07;;;;;;;7.88;1.70;;;;;;;8.19;58.18;100717.75;4931474;28;101281;-83
2022/12/27 05:52:32;;;;;;;9.63;2.22;;;;;;;8.18;58.21;100709.06;4942228;28;96784;-83
2022/12/27 05:54:58;;;;;;;9.43;2.05;;;;;;;8.07;58.63;100695.31;4947387;28;96746;-83
2022/12/27 05:57:23;;;;;;;5.80;1.55;;;;;;;8.19;58.85;100718.63;4950848;28;97733;-83
2022/12/27 05:59:49;;;;;;;7.43;2.08;;;;;;;8.26;58.76;100732.44;4966920;28;97373;-84
2022/12/27 06:02:14;;;;;;;7.45;2.55;;;;;;;8.22;58.58;100734.25;4909417;28;98017;-83
2022/12/27 06:04:40;;;;;;;4.65;1.83;;;;;;;8.20;58.77;100733.41;4914768;28;96962;-84
2022/12/27 06:07:05;;;;;;;7.03;3.00;;;;;;;8.21;58.77;100735.16;4931037;28;101200;-84
2022/12/27 06:09:31;;;;;;;6.43;2.35;;;;;;;8.23;58.30;100736.00;4941198;28;101456;-83
2022/12/27 06:11:56;;;;;;;7.68;2.67;;;;;;;8.20;58.64;100732.53;4917039;28;97093;-83
2022/12/27 06:14:22;;;;;;;7.00;2.72;;;;;;;8.20;58.85;100738.63;4918332;28;96975;-83
2022/12/27 06:16:47;;;;;;;9.75;2.47;;;;;;;8.20;57.94;100753.47;4918139;28;101921;-84
2022/12/27 06:19:13;;;;;;;6.82;1.80;;;;;;;8.04;58.45;100735.44;4943725;28;98329;-83
2022/12/27 06:21:39;;;;;;;8.38;1.77;;;;;;;8.11;58.65;100744.03;4918844;28;97348;-83
2022/12/27 06:24:05;;;;;;;9.00;2.22;;;;;;;8.07;58.16;100743.22;4927881;28;97299;-84
2022/12/27 06:26:30;;;;;;;10.25;1.98;;;;;;;8.07;58.26;100747.59;4918006;28;100374;-83
2022/12/27 06:28:56;;;;;;;7.78;1.92;;;;;;;8.05;58.89;100752.84;4947221;28;97170;-83
2022/12/27 06:31:23;;;;;;;7.93;2.28;;;;;;;7.99;58.34;100739.00;4934668;28;97228;-83
2022/12/27 06:33:50;;;;;;;6.97;2.13;;;;;;;8.03;58.39;100756.38;4934563;28;97374;-85
2022/12/27 06:36:19;;;;;;;7.47;1.80;;;;;;;8.07;58.48;100760.66;4918258;28;98714;-84
2022/12/27 06:38:46;;;;;;;6.13;2.42;;;;;;;7.90;58.51;100738.28;4948792;28;100363;-83
2022/12/27 06:41:13;;;;;;;11.13;2.80;;;;;;;7.98;58.43;100753.00;4956168;28;96740;-83
2022/12/27 06:43:39;;;;;;;8.23;2.25;;;;;;;7.84;58.30;100735.75;4908440;28;97345;-83
2022/12/27 06:46:08;;;;;;;11.20;2.72;;;;;;;7.89;58.62;100761.84;4936654;28;101614;-83
2022/12/27 06:48:34;;;;;;;4.22;2.17;;;;;;;7.91;58.30;100768.78;4914132;28;98238;-84
2022/12/27 06:51:03;;;;;;;9.70;2.75;;;;;;;7.80;58.47;100770.69;4961272;28;97114;-83
2022/12/27 06:53:29;;;;;;;10.55;3.20;;;;;;;7.75;58.36;100775.13;4919065;28;97337;-84
2022/12/27 06:55:54;;;;;;;7.35;2.63;;;;;;;7.80;58.62;100788.97;4949378;28;100170;-83
2022/12/27 06:58:20;;;;;;;9.77;2.13;;;;;;;7.83;58.35;100780.25;4917623;28;101634;-83
2022/12/27 07:00:46;;;;;;;7.88;3.22;;;;;;;7.81;58.00;100788.09;4942164;28;97230;-83
2022/12/27 07:03:11;;;;;;;9.73;2.17;;;;;;;7.77;58.06;100796.88;4945378;28;97495;-84
2022/12/27 07:05:37;;;;;;;5.95;2.00;;;;;;;7.78;58.26;100795.13;4917720;28;101504;-83
2022/12/27 07:08:03;;;;;;;9.02;3.03;;;;;;;7.65;58.40;100799.63;4906060;28;101256;-84
2022/12/27 07:10:29;;;;;;;10.23;2.67;;;;;;;7.74;58.20;100804.75;4914444;28;97029;-83
2022/12/27 07:12:55;;;;;;;8.70;2.08;;;;;;;7.58;58.24;100785.81;4942172;28;96939;-83
2022/12/27 07:15:21;;;;;;;7.22;1.90;;;;;;;7.72;58.17;100802.16;4916812;28;97648;-83
2022/12/27 07:17:46;;;;;;;9.38;2.13;;;;;;;7.67;58.30;100813.56;4925903;28;101233;-83
2022/12/27 07:20:12;;;;;;;7.10;1.85;;;;;;;7.66;57.96;100817.06;4915271;28;96907;-84
2022/12/27 07:22:37;;;;;;;5.70;1.67;;;;;;;7.66;57.86;100817.06;4933025;28;97256;-83
2022/12/27 07:25:04;;;;;;;4.68;1.98;;;;;;;7.66;57.74;100820.53;4915251;28;101302;-83
2022/12/27 07:27:35;;;;;;;6.43;1.95;;;;;;;7.66;57.99;100819.69;4938892;28;100468;-84
2022/12/27 07:30:01;;;;;;;11.35;2.72;;;;;;;7.63;57.86;100830.19;4925160;28;97417;-86
2022/12/27 07:32:27;;;;;;;6.65;2.72;;;;;;;7.68;57.55;100829.22;4962244;28;96974;-83
2022/12/27 07:34:52;;;;;;;7.30;2.40;;;;;;;7.66;57.43;100828.38;4949409;28;101269;-86
2022/12/27 07:37:19;;;;;;;10.73;2.40;;;;;;;7.62;57.51;100825.81;4927442;28;100188;-82
2022/12/27 07:39:45;;;;;;;10.57;2.72;;;;;;;7.76;57.51;100846.53;4966252;28;97325;-83
2022/12/27 07:42:10;;;;;;;8.30;2.38;;;;;;;7.77;57.10;100845.66;4915706;28;98123;-84
2022/12/27 07:44:36;;;;;;;5.88;1.92;;;;;;;7.76;57.17;100862.22;4908293;28;101026;-85
2022/12/27 07:47:02;;;;;;;11.40;2.35;;;;;;;7.71;57.21;100860.53;4957081;28;98396;-83
2022/12/27 07:49:27;;;;;;;11.55;2.33;;;;;;;7.67;57.21;100853.63;4934834;28;97766;-84
2022/12/27 07:51:53;;;;;;;8.40;2.38;;;;;;;7.76;56.85;100864.84;4931563;28;97206;-87
2022/12/27 07:54:19;;;;;;;7.72;2.15;;;;;;;7.84;56.62;100873.44;4940738;28;101004;-84
2022/12/27 07:56:44;;;;;;;3.63;1.83;;;;;;;7.65;57.13;100837.13;4948745;28;101134;-83
2022/12/27 07:59:11;;;;;;;6.65;2.40;;;;;;;7.78;56.26;100850.00;4952023;28;97467;-84
2022/12/27 08:02:02;;;;;;;6.82;2.13;;;;;;;8.00;56.74;100882.81;4915086;28;97742;-83
2022/12/27 08:04:26;;;;;;;6.90;2.17;;;;;;;8.04;56.12;100863.56;4961195;28;97978;-85
2022/12/27 08:06:51;;;;;;;5.22;1.38;;;;;;;8.09;55.63;100859.13;4932200;28;101262;-83
2022/12/27 08:09:27;;;;;;;9.25;1.95;;;;;;;8.35;55.91;100884.88;4937327;28;96875;-84
2022/12/27 08:11:53;;;;;;;6.20;1.50;;;;;;;8.59;55.14;100882.78;4943929;28;97351;-85
2022/12/27 08:14:19;;;;;;;6.18;1.85;;;;;;;8.70;54.76;100862.53;4922603;28;101027;-84
2022/12/27 08:16:44;;;;;;;6.03;2.08;;;;;;;8.85;53.78;100858.75;4963640;28;101549;-83
2022/12/27 08:19:10;;;;;;;7.88;1.50;;;;;;;9.14;53.69;100876.53;4931677;28;97418;-83
2022/12/27 08:21:35;;;;;;;6.20;1.60;;;;;;;9.36;53.18;100874.34;4961226;28;97203;-83
2022/12/27 08:24:01;;;;;;;5.40;2.45;;;;;;;9.28;52.85;100848.31;4962220;28;97363;-85
2022/12/27 08:26:26;;;;;;;11.40;2.42;;;;;;;9.47;52.42;100853.16;4898827;28;101176;-84
2022/12/27 08:28:52;;;;;;;11.57;2.40;;;;;;;9.78;52.11;100879.59;4963865;28;96789;-83
2022/12/27 08:31:18;;;;;;;7.28;1.85;;;;;;;9.90;51.68;100870.59;4932839;28;97356;-85
2022/12/27 08:33:44;;;;;;;7.88;2.45;;;;;;;10.07;51.68;100868.44;4910146;28;98016;-84
2022/12/27 08:36:11;;;;;;;7.25;1.85;;;;;;;10.21;50.84;100868.13;4915415;28;101519;-84
2022/12/27 08:38:36;;;;;;;6.95;2.25;;;;;;;10.31;50.30;100871.44;4916408;28;96746;-84
2022/12/27 08:41:02;;;;;;;7.20;2.20;;;;;;;10.40;50.24;100871.19;4913231;28;97639;-84
2022/12/27 08:43:28;;;;;;;5.75;2.13;;;;;;;10.45;50.34;100871.94;4913345;28;98436;-84
2022/12/27 08:46:02;;;;;;;6.15;1.80;;;;;;;10.63;49.88;100881.13;4904616;28;101101;-84
2022/12/27 08:48:30;;;;;;;6.75;2.28;;;;;;;10.74;49.63;100888.72;4913939;28;97072;-84
2022/12/27 08:50:56;;;;;;;6.45;2.78;;;;;;;10.83;49.33;100891.13;4943881;28;96975;-87
2022/12/27 08:53:21;;;;;;;5.90;2.10;;;;;;;10.71;49.20;100852.91;4911445;28;101875;-85
2022/12/27 08:55:47;;;;;;;4.97;1.73;;;;;;;10.92;48.62;100884.75;4947603;28;97951;-84
2022/12/27 08:58:12;;;;;;;6.78;1.90;;;;;;;11.11;48.31;100896.47;4911853;28;97893;-85
2022/12/27 09:00:38;;;;;;;3.72;1.90;;;;;;;11.19;48.15;100888.41;4928973;28;96966;-84
2022/12/27 09:03:03;;;;;;;6.70;1.92;;;;;;;11.26;48.11;100900.50;4919427;28;98439;-84
2022/12/27 09:05:29;;;;;;;4.15;1.80;;;;;;;11.29;47.91;100882.84;4942915;28;98507;-84
2022/12/27 09:07:55;;;;;;;9.13;2.22;;;;;;;11.16;47.10;100872.72;4929727;28;96804;-84
2022/12/27 09:10:22;;;;;;;5.72;2.47;;;;;;;11.28;47.54;100890.78;4940177;28;97338;-83
2022/12/27 09:12:48;;;;;;;5.45;1.88;;;;;;;11.32;47.47;100913.44;4927040;28;101418;-84
2022/12/27 09:15:14;;;;;;;4.00;1.48;;;;;;;11.40;47.01;100903.56;4909133;28;100164;-82
2022/12/27 09:17:39;;;;;;;6.97;3.03;;;;;;;11.51;47.50;100900.63;4937987;28;98118;-83
2022/12/27 09:20:06;;;;;;;8.02;2.97;;;;;;;11.62;47.03;100908.22;4916013;28;97517;-83
2022/12/27 09:22:34;;;;;;;6.70;2.63;;;;;;;11.64;46.55;100888.88;4926989;28;99404;-83
2022/12/27 09:24:59;;;;;;;5.53;2.85;;;;;;;11.54;47.05;100906.66;4897143;28;101204;-86
2022/12/27 09:27:25;;;;;;;10.13;4.28;;;;;;;11.62;46.70;100895.06;4936787;28;96745;-83
2022/12/27 09:29:50;;;;;;;6.20;2.70;;;;;;;11.83;46.31;100912.84;4943203;28;96957;-83
2022/12/27 09:32:16;;;;;;;6.97;2.13;;;;;;;11.81;46.53;100911.16;4929987;28;101172;-83
2022/12/27 09:34:42;;;;;;;5.28;2.30;;;;;;;11.87;46.15;100918.91;4945344;28;97548;-83
2022/12/27 09:37:07;;;;;;;7.95;3.40;;;;;;;11.88;45.72;100910.97;4943351;28;98259;-83
2022/12/27 09:39:33;;;;;;;8.30;2.45;;;;;;;11.90;45.83;100903.91;4933307;28;96957;-82
2022/12/27 09:42:20;;;;;;;6.00;1.95;;;;;;;11.93;46.12;100901.19;4934736;28;101703;-84
2022/12/27 09:44:49;;;;;;;8.43;1.70;;;;;;;12.06;45.64;100916.59;4925157;28;98458;-81
2022/12/27 09:47:25;;;;;;;4.60;1.92;;;;;;;12.11;45.70;100909.41;4916082;28;98129;-81
2022/12/27 09:49:54;;;;;;;6.00;1.92;;;;;;;12.21;46.08;100901.16;4944302;28;96775;-79
2022/12/27 09:52:26;;;;;;;9.13;1.83;;;;;;;11.96;44.82;100887.06;4928615;28;98172;-79
2022/12/27 09:55:19;;;;;;;8.48;2.53;;;;;;;11.91;45.56;100915.28;4911343;28;100463;-78
2022/12/27 09:57:46;;;;;;;7.72;2.10;;;;;;;11.75;45.74;100910.47;4901257;28;97980;-78
2022/12/27 10:00:25;;;;;;;4.75;1.90;;;;;;;11.83;45.44;100926.00;4924341;28;97379;-79
2022/12/27 10:02:51;;;;;;;4.22;1.58;;;;;;;11.80;45.58;100905.03;4910214;28;97775;-80
2022/12/27 10:05:22;;;;;;;7.30;1.80;;;;;;;11.86;45.50;100915.41;4914713;28;97327;-83
2022/12/27 10:07:53;;;;;;;6.82;1.83;;;;;;;11.93;45.53;100927.50;4913064;28;98158;-83
2022/12/27 10:10:25;;;;;;;4.60;1.90;;;;;;;11.82;46.04;100931.31;4927475;28;97077;-83
2022/12/27 10:13:15;;;;;;;5.82;2.55;;;;;;;11.78;45.23;100920.03;4926522;28;101914;-83
2022/12/27 10:15:57;;;;;;;3.47;1.63;;;;;;;11.83;45.66;100912.84;4902590;28;101474;-84
2022/12/27 10:18:33;;;;;;;;;;;;;;;11.95;45.80;100917.75;4925527;28;96839;-83
2022/12/27 10:21:20;;;;;;;6.78;2.00;;;;;;;11.81;45.76;100919.06;4923650;28;98501;-83
2022/12/27 10:23:53;;;;;;;5.18;1.55;;;;;;;11.84;45.36;100927.75;4941221;28;101333;-84
2022/12/27 10:26:19;;;;;;;4.47;1.70;;;;;;;11.85;45.96;100918.06;4894584;28;102211;-84
2022/12/27 10:29:25;;;;;;;7.35;2.58;;;;;;;11.77;45.74;100919.16;4923989;28;98880;-82
2022/12/27 10:31:51;;;;;;;7.05;1.75;;;;;;;11.69;46.00;100909.75;4936627;28;97941;-82
2022/12/27 10:34:23;;;;;;;5.40;1.55;;;;;;;11.66;45.99;100897.56;4913335;28;101007;-82
2022/12/27 10:36:49;;;;;;;4.95;1.92;;;;;;;11.68;46.33;100916.78;4907807;28;99369;-83
2022/12/27 10:39:18;;;;;;;7.28;2.35;;;;;;;11.72;46.48;100931.59;4910380;28;98223;-82
2022/12/27 10:41:56;;;;;;;5.60;1.27;;;;;;;11.68;45.75;100924.69;4905713;28;97097;-82
2022/12/27 10:44:22;;;;;;;5.28;1.45;;;;;;;11.46;46.36;100928.81;4911941;28;101211;-84
2022/12/27 10:46:52;;;;;;;4.63;1.58;;;;;;;11.47;46.55;100934.03;4882961;28;101441;-81
2022/12/27 10:49:25;;;;;;;5.18;2.17;;;;;;;11.48;46.72;100911.25;4922925;28;97375;-82
2022/12/27 10:51:52;;;;;;;4.60;1.85;;;;;;;11.58;46.58;100920.59;4940439;28;96995;-82
2022/12/27 10:54:20;;;;;;;3.72;1.60;;;;;;;11.45;46.63;100927.97;4926839;28;101176;-81
2022/12/27 10:56:46;;;;;;;3.90;1.80;;;;;;;11.35;46.27;100925.66;4915289;28;101445;-81
2022/12/27 10:59:28;;;;;;;4.72;1.55;;;;;;;11.24;46.52;100904.91;4929528;28;97065;-82
2022/12/27 11:02:00;;;;;;;;;;;;;;;11.23;46.58;100919.81;4930423;28;96868;-80
2022/12/27 11:04:26;;;;;;;5.68;1.80;;;;;;;11.08;46.65;100910.59;4933925;28;101540;-81
2022/12/27 11:07:01;;;;;;;3.85;1.60;;;;;;;11.05;46.65;100894.03;4895303;28;101430;-82
2022/12/27 11:09:34;;;;;;;5.25;1.63;;;;;;;10.86;46.75;100902.41;4942891;28;97249;-78
2022/12/27 11:12:20;;;;;;;8.38;1.58;;;;;;;10.91;46.77;100904.91;4913971;28;98261;-81
2022/12/27 11:14:53;;;;;;;5.25;1.77;;;;;;;11.03;47.46;100912.47;4925854;28;101472;-81
2022/12/27 11:17:22;;;;;;;4.85;1.60;;;;;;;10.86;47.42;100876.13;4943152;28;98227;-81
2022/12/27 11:19:47;;;;;;;4.70;1.63;;;;;;;10.99;47.42;100913.44;4911632;28;97393;-82
2022/12/27 11:22:13;;;;;;;7.72;2.25;;;;;;;11.58;62.48;100915.34;4911145;28;97279;-75
2022/12/27 11:24:45;;;;;;;8.73;2.10;;;;;;;11.83;50.64;100925.13;4926104;28;101180;-81
2022/12/27 11:27:21;;;;;;;6.07;1.88;;;;;;;11.42;47.71;100898.28;4909623;28;99551;-81
2022/12/27 11:29:46;;;;;;;6.85;1.95;;;;;;;11.35;47.94;100921.25;4928083;28;97436;-80
2022/12/27 11:32:13;;;;;;;5.03;2.00;;;;;;;11.20;47.77;100919.91;4925779;28;97185;-81
2022/12/27 11:34:43;;;;;;;4.95;1.75;;;;;;;10.97;47.58;100919.66;4926249;28;100909;-81
2022/12/27 11:37:17;;;;;;;5.22;1.60;;;;;;;10.82;47.84;100921.78;4910186;28;101262;-84
2022/12/27 11:39:51;;;;;;;5.10;1.90;;;;;;;10.83;48.07;100941.88;4913550;28;97460;-83
2022/12/27 11:42:38;;;;;;;8.75;1.77;;;;;;;10.74;48.03;100934.22;4937344;28;97536;-82
2022/12/27 11:45:16;;;;;;;7.22;1.95;;;;;;;10.66;47.88;100946.69;4904766;28;101754;-82
2022/12/27 11:48:00;;;;;;;4.97;2.05;;;;;;;10.58;47.79;100933.72;4910770;28;99005;-82
2022/12/27 11:50:26;;;;;;;6.47;1.60;;;;;;;10.38;47.59;100939.47;4930614;28;96806;-82
2022/12/27 11:53:49;;;;;;;5.40;1.50;;;;;;;10.26;48.46;100944.09;4939098;28;97015;-83
2022/12/27 11:56:18;;;;;;;7.72;2.25;;;;;;;10.25;48.75;100945.00;4944183;28;101428;-84
2022/12/27 11:59:11;;;;;;;8.45;1.65;;;;;;;10.19;49.19;100946.00;4909463;28;101480;-82
2022/12/27 12:01:58;;;;;;;4.88;1.67;;;;;;;9.96;48.58;100912.41;4924491;28;97535;-82
2022/12/27 12:05:01;;;;;;;2.75;1.48;;;;;;;10.09;49.21;100945.34;4924438;28;97323;-82
2022/12/27 12:07:48;;;;;;;5.43;1.42;;;;;;;10.14;48.84;100911.13;4932601;28;101706;-78
2022/12/27 12:10:44;;;;;;;6.70;1.50;;;;;;;10.27;49.48;100933.63;4913939;28;97482;-82
2022/12/27 12:13:10;;;;;;;5.55;2.20;;;;;;;10.24;49.15;100928.41;4923206;28;100029;-81
2022/12/27 12:15:48;;;;;;;4.38;1.58;;;;;;;10.13;48.87;100928.66;4918041;28;97166;-79
2022/12/27 12:18:39;;;;;;;5.68;1.77;;;;;;;10.07;49.17;100923.53;4938038;28;101658;-78
2022/12/27 12:21:07;;;;;;;4.90;1.70;;;;;;;10.18;49.15;100915.41;4958830;28;101769;-78
2022/12/27 12:23:36;;;;;;;4.55;1.80;;;;;;;10.26;49.62;100921.34;4924873;28;97533;-78
2022/12/27 12:26:21;;;;;;;5.18;1.90;;;;;;;10.22;49.03;100919.69;4928595;28;96997;-78
2022/12/27 12:29:14;;;;;;;4.60;1.55;;;;;;;10.17;49.18;100927.66;4931916;28;101994;-79
2022/12/27 12:31:52;;;;;;;5.63;1.98;;;;;;;10.07;49.37;100931.41;4955213;28;101053;-79
2022/12/27 12:34:36;;;;;;;4.65;1.52;;;;;;;10.04;49.19;100931.47;4918542;28;98796;-78
2022/12/27 12:37:20;;;;;;;8.18;2.05;;;;;;;9.93;48.97;100907.25;4917224;28;97475;-78
2022/12/27 12:40:01;;;;;;;4.22;1.60;;;;;;;10.05;48.90;100924.47;4935818;28;98171;-78
2022/12/27 12:42:56;;;;;;;4.03;1.63;;;;;;;9.98;48.86;100914.13;4924980;28;101203;-81
2022/12/27 12:45:42;;;;;;;10.25;1.85;;;;;;;9.98;48.80;100923.75;4916751;28;96864;-80
2022/12/27 12:48:42;;;;;;;6.78;3.10;;;;;;;9.79;49.07;100927.66;4899235;28;97441;-77
2022/12/27 12:51:18;;;;;;;6.40;2.17;;;;;;;9.80;49.17;100929.38;4921589;28;101477;-81
2022/12/27 12:54:12;;;;;;;5.43;1.77;;;;;;;9.69;49.36;100932.22;4936354;28;101314;-78
2022/12/27 12:56:58;;;;;;;3.53;1.63;;;;;;;9.66;49.59;100921.81;4919124;28;97419;-82
2022/12/27 12:59:44;;;;;;;5.63;2.42;;;;;;;9.67;49.01;100926.16;4917086;28;96907;-81
2022/12/27 13:02:18;;;;;;;4.50;2.00;;;;;;;9.67;49.09;100947.13;4929088;28;101704;-82
2022/12/27 13:04:59;;;;;;;4.55;1.80;;;;;;;9.71;48.88;100946.16;4910906;28;101585;-79
2022/12/27 13:07:43;;;;;;;8.27;2.05;;;;;;;9.73;49.11;100942.59;4909536;28;97429;-81
2022/12/27 13:10:36;;;;;;;5.00;2.00;;;;;;;9.61;48.86;100955.13;4935987;28;97998;-80
2022/12/27 13:13:29;;;;;;;5.97;2.28;;;;;;;9.55;48.70;100942.13;4917030;28;97908;-83
2022/12/27 13:16:04;;;;;;;3.72;1.88;;;;;;;9.50;48.99;100953.56;4927066;28;101634;-81
2022/12/27 13:18:37;;;;;;;6.60;2.28;;;;;;;9.44;49.47;100950.19;4936173;28;97396;-81
2022/12/27 13:21:09;;;;;;;10.02;2.08;;;;;;;9.50;49.30;100953.56;4947118;28;97350;-80
2022/12/27 13:24:00;;;;;;;6.05;2.30;;;;;;;9.59;48.99;100949.03;4912742;28;101470;-81
2022/12/27 13:26:44;;;;;;;4.70;2.00;;;;;;;9.47;49.45;100958.84;4918919;28;101278;-83